Time;durP1;ratioP1;P1;durP2;ratioP2;P2;SDS_P1;SDS_P2;PMS_P1;PMS_P2;Temp;Humidity;BMP_temperature;BMP_pressure;BME280_temperature;BME280_humidity;BME280_pressure;Samples;Min_cycle;Max_cycle;Signal;HPM_P1;HPM_P2
2022/04/16 00:00:20;;;;;;;80.93;16.55;;;;;;;;;;5057000;28;20029;-76
2022/04/16 00:02:46;;;;;;;80.68;18.25;;;;;;;;;;5067586;28;20035;-76
2022/04/16 00:05:12;;;;;;;92.88;17.70;;;;;;;;;;5085987;28;20044;-76
2022/04/16 00:07:38;;;;;;;77.43;18.15;;;;;;;;;;5066546;28;20055;-75
2022/04/16 00:10:05;;;;;;;73.97;17.92;;;;;;;;;;5066986;28;20502;-75
2022/04/16 00:12:30;;;;;;;72.25;17.98;;;;;;;;;;5068664;28;20028;-76
2022/04/16 00:14:56;;;;;;;75.38;17.77;;;;;;;;;;5062849;28;20032;-76
2022/04/16 00:17:21;;;;;;;83.93;18.52;;;;;;;;;;5050143;28;20024;-75
2022/04/16 00:19:47;;;;;;;98.93;20.80;;;;;;;;;;5082020;28;20033;-76
2022/04/16 00:22:13;;;;;;;68.03;17.95;;;;;;;;;;5070764;28;20077;-76
2022/04/16 00:24:40;;;;;;;68.47;16.50;;;;;;;;;;5065277;28;20102;-76
2022/04/16 00:27:10;;;;;;;68.13;17.38;;;;;;;;;;5067478;28;20033;-76
2022/04/16 00:29:39;;;;;;;87.07;17.88;;;;;;;;;;5087808;28;20489;-76
2022/04/16 00:32:05;;;;;;;80.65;18.08;;;;;;;;;;5065936;28;20035;-76
2022/04/16 00:34:35;;;;;;;66.75;18.67;;;;;;;;;;5065273;28;20075;-77
2022/04/16 00:37:01;;;;;;;74.25;18.83;;;;;;;;;;5072166;28;20044;-76
2022/04/16 00:39:26;;;;;;;89.97;17.73;;;;;;;;;;5064765;28;20565;-75
2022/04/16 00:41:52;;;;;;;73.10;17.38;;;;;;;;;;5075559;28;20028;-75
2022/04/16 00:44:19;;;;;;;78.13;18.65;;;;;;;;;;5055177;28;20054;-76
2022/04/16 00:46:45;;;;;;;85.80;19.00;;;;;;;;;;5068515;28;20024;-76
2022/04/16 00:49:11;;;;;;;89.22;18.33;;;;;;;;;;5063463;28;20106;-76
2022/04/16 00:51:37;;;;;;;85.82;17.20;;;;;;;;;;5061403;28;20550;-76
2022/04/16 00:54:02;;;;;;;85.05;18.48;;;;;;;;;;5072443;28;20289;-81
2022/04/16 00:56:28;;;;;;;74.40;18.73;;;;;;;;;;5051107;28;20035;-81
2022/04/16 00:58:53;;;;;;;78.55;20.08;;;;;;;;;;5057102;28;20090;-80
2022/04/16 01:01:19;;;;;;;75.10;17.13;;;;;;;;;;5061282;28;20070;-80
2022/04/16 01:03:46;;;;;;;71.15;17.70;;;;;;;;;;5054309;28;20036;-81
2022/04/16 01:06:15;;;;;;;78.95;18.70;;;;;;;;;;5063676;28;20036;-81
2022/04/16 01:08:44;;;;;;;78.28;18.90;;;;;;;;;;5065426;28;20041;-81
2022/04/16 01:11:11;;;;;;;61.35;17.33;;;;;;;;;;5071955;28;20498;-81
2022/04/16 01:13:37;;;;;;;68.13;17.88;;;;;;;;;;5073585;28;20033;-81
2022/04/16 01:16:05;;;;;;;82.43;19.60;;;;;;;;;;5069718;28;20108;-81
2022/04/16 01:18:31;;;;;;;77.93;19.25;;;;;;;;;;5065089;28;20027;-80
2022/04/16 01:20:57;;;;;;;79.55;17.15;;;;;;;;;;5071696;28;20167;-81
2022/04/16 01:23:22;;;;;;;88.85;19.27;;;;;;;;;;5048032;28;20533;-81
2022/04/16 01:25:48;;;;;;;72.32;18.40;;;;;;;;;;5055038;28;20067;-81
2022/04/16 01:28:13;;;;;;;77.63;20.05;;;;;;;;;;5063952;28;20036;-81
2022/04/16 01:30:39;;;;;;;80.22;18.73;;;;;;;;;;5052235;28;20406;-81
2022/04/16 01:33:05;;;;;;;70.82;17.77;;;;;;;;;;5068342;28;20029;-81
2022/04/16 01:35:31;;;;;;;72.47;17.92;;;;;;;;;;5067292;28;20117;-81
2022/04/16 01:37:57;;;;;;;73.57;18.35;;;;;;;;;;5061298;28;20103;-81
2022/04/16 01:40:25;;;;;;;80.97;19.08;;;;;;;;;;5064797;28;20600;-81
2022/04/16 01:42:52;;;;;;;99.75;20.08;;;;;;;;;;5053347;28;20141;-82
2022/04/16 01:45:18;;;;;;;73.07;19.33;;;;;;;;;;5046921;28;20043;-81
2022/04/16 01:47:44;;;;;;;98.72;19.23;;;;;;;;;;5067262;28;20032;-82
2022/04/16 01:50:11;;;;;;;75.00;19.05;;;;;;;;;;5066198;28;20032;-82
2022/04/16 01:52:38;;;;;;;75.60;19.40;;;;;;;;;;5069210;28;20027;-81
2022/04/16 01:55:04;;;;;;;84.25;18.98;;;;;;;;;;5065857;28;20782;-75
2022/04/16 01:57:30;;;;;;;89.78;21.08;;;;;;;;;;5052982;28;20036;-75
2022/04/16 01:59:56;;;;;;;83.78;19.70;;;;;;;;;;5082346;28;20039;-76
2022/04/16 02:02:22;;;;;;;80.78;19.05;;;;;;;;;;5065106;28;20037;-76
2022/04/16 02:04:47;;;;;;;80.88;17.95;;;;;;;;;;5065652;28;20044;-76
2022/04/16 02:07:13;;;;;;;86.25;19.02;;;;;;;;;;5066174;28;20024;-76
2022/04/16 02:09:40;;;;;;;83.20;18.85;;;;;;;;;;5061631;28;20543;-76
2022/04/16 02:12:06;;;;;;;66.95;17.77;;;;;;;;;;5065804;28;20032;-76
2022/04/16 02:14:32;;;;;;;83.45;18.92;;;;;;;;;;5073625;28;20016;-76
2022/04/16 02:16:58;;;;;;;74.85;18.52;;;;;;;;;;5074122;28;20035;-76
2022/04/16 02:19:24;;;;;;;84.03;19.08;;;;;;;;;;5071682;28;20111;-75
2022/04/16 02:21:49;;;;;;;73.50;20.05;;;;;;;;;;5069591;28;20107;-76
2022/04/16 02:24:17;;;;;;;77.05;17.85;;;;;;;;;;5074165;28;20085;-81
2022/04/16 02:26:44;;;;;;;87.18;18.80;;;;;;;;;;5074403;28;20054;-81
2022/04/16 02:29:10;;;;;;;83.88;18.70;;;;;;;;;;5065670;28;20116;-81
2022/04/16 02:31:37;;;;;;;76.88;20.88;;;;;;;;;;5075186;28;20054;-81
2022/04/16 02:34:05;;;;;;;61.53;17.30;;;;;;;;;;5070657;28;20016;-81
2022/04/16 02:36:34;;;;;;;70.35;18.05;;;;;;;;;;5067711;28;20024;-81
2022/04/16 02:39:00;;;;;;;66.90;16.38;;;;;;;;;;5065277;28;20484;-81
2022/04/16 02:41:27;;;;;;;68.43;17.92;;;;;;;;;;5066966;28;20040;-81
2022/04/16 02:43:55;;;;;;;76.20;17.48;;;;;;;;;;5068364;28;20033;-81
2022/04/16 02:49:10;;;;;;;69.90;18.00;;;;;;;;;;5064047;28;20128;-81
2022/04/16 02:51:36;;;;;;;62.58;17.17;;;;;;;;;;5065506;28;20434;-81
2022/04/16 02:54:01;;;;;;;62.30;16.13;;;;;;;;;;5076705;28;20085;-81
2022/04/16 02:56:27;;;;;;;59.40;17.13;;;;;;;;;;5056001;28;20024;-81
2022/04/16 02:58:52;;;;;;;78.93;16.75;;;;;;;;;;5089950;28;20052;-82
2022/04/16 03:01:18;;;;;;;66.95;16.63;;;;;;;;;;5068222;28;20035;-82
2022/04/16 03:03:44;;;;;;;64.25;15.90;;;;;;;;;;5067579;28;20040;-81
2022/04/16 03:06:09;;;;;;;57.20;16.23;;;;;;;;;;5069815;28;20548;-81
2022/04/16 03:08:35;;;;;;;61.45;15.38;;;;;;;;;;5070064;28;20047;-81
2022/04/16 03:11:01;;;;;;;47.53;15.77;;;;;;;;;;5068635;28;20085;-81
2022/04/16 03:13:27;;;;;;;72.00;16.58;;;;;;;;;;5069518;28;20037;-81
2022/04/16 03:18:36;;;;;;;59.78;15.65;;;;;;;;;;5068082;28;20129;-81
2022/04/16 03:21:04;;;;;;;47.00;13.43;;;;;;;;;;5069511;28;20063;-81
2022/04/16 03:23:29;;;;;;;56.40;14.05;;;;;;;;;;5069214;28;20489;-80
2022/04/16 03:26:00;;;;;;;45.53;13.77;;;;;;;;;;5068354;28;20136;-81
2022/04/16 03:28:26;;;;;;;41.22;13.90;;;;;;;;;;5058670;28;20056;-81
2022/04/16 03:30:53;;;;;;;51.20;14.43;;;;;;;;;;5065749;28;20780;-81
2022/04/16 03:33:20;;;;;;;54.17;14.65;;;;;;;;;;5068323;28;20032;-81
2022/04/16 03:35:45;;;;;;;47.17;12.98;;;;;;;;;;5073585;28;20059;-80
2022/04/16 03:38:11;;;;;;;45.47;14.10;;;;;;;;;;5068758;28;20113;-80
2022/04/16 03:40:36;;;;;;;52.25;14.05;;;;;;;;;;5072871;28;20082;-81
2022/04/16 03:43:02;;;;;;;52.08;13.70;;;;;;;;;;5084542;28;20422;-81
2022/04/16 03:45:31;;;;;;;41.75;12.73;;;;;;;;;;5073732;28;20040;-81
2022/04/16 03:47:58;;;;;;;49.47;13.70;;;;;;;;;;5071803;28;20028;-81
2022/04/16 03:50:24;;;;;;;41.78;12.48;;;;;;;;;;5060930;28;20063;-81
2022/04/16 03:52:52;;;;;;;46.88;13.65;;;;;;;;;;5068436;28;20032;-81
2022/04/16 04:00:52;;;;;;;43.60;12.68;;;;;;;;;;5064474;28;20073;-81
2022/04/16 04:03:18;;;;;;;43.53;12.23;;;;;;;;;;5070047;28;20032;-81
2022/04/16 04:05:46;;;;;;;37.33;12.38;;;;;;;;;;5064989;28;20032;-81
2022/04/16 04:08:12;;;;;;;55.95;14.25;;;;;;;;;;5069991;28;20029;-81
2022/04/16 04:10:38;;;;;;;32.80;12.10;;;;;;;;;;5064411;28;20036;-81
2022/04/16 04:13:04;;;;;;;37.22;12.07;;;;;;;;;;5067494;28;20033;-82
2022/04/16 04:15:30;;;;;;;28.05;11.30;;;;;;;;;;5080315;28;20025;-81
2022/04/16 04:18:00;;;;;;;31.98;10.93;;;;;;;;;;5067954;28;20043;-81
2022/04/16 04:20:27;;;;;;;36.58;12.10;;;;;;;;;;5065421;28;20023;-81
2022/04/16 04:22:52;;;;;;;35.38;11.10;;;;;;;;;;5069289;28;20102;-80
2022/04/16 04:25:18;;;;;;;30.98;10.70;;;;;;;;;;5069094;28;20090;-81
2022/04/16 04:27:44;;;;;;;47.42;11.70;;;;;;;;;;5051437;28;20028;-81
2022/04/16 04:30:10;;;;;;;52.50;11.20;;;;;;;;;;5035379;28;20036;-81
2022/04/16 04:32:38;;;;;;;32.08;10.60;;;;;;;;;;5079061;28;20135;-81
2022/04/16 04:35:05;;;;;;;41.42;11.30;;;;;;;;;;5065758;28;20036;-81
2022/04/16 04:37:30;;;;;;;34.33;12.10;;;;;;;;;;5067980;28;20020;-81
2022/04/16 04:39:56;;;;;;;25.20;10.75;;;;;;;;;;5066732;28;20043;-81
2022/04/16 04:42:41;;;;;;;37.08;11.00;;;;;;;;;;5064097;28;20028;-81
2022/04/16 04:45:12;;;;;;;38.13;10.93;;;;;;;;;;5063344;28;20036;-81
2022/04/16 04:47:38;;;;;;;33.85;10.05;;;;;;;;;;5066219;28;20029;-81
2022/04/16 04:50:05;;;;;;;36.75;10.73;;;;;;;;;;5065465;28;20049;-81
2022/04/16 04:52:31;;;;;;;32.47;9.05;;;;;;;;;;5062215;28;20041;-81
2022/04/16 04:54:58;;;;;;;37.08;11.35;;;;;;;;;;5066559;28;20041;-76
2022/04/16 04:57:23;;;;;;;27.10;9.77;;;;;;;;;;5069529;28;20024;-75
2022/04/16 04:59:49;;;;;;;25.10;9.13;;;;;;;;;;5066194;28;20024;-76
2022/04/16 05:02:15;;;;;;;30.33;10.55;;;;;;;;;;5070102;28;20044;-75
2022/04/16 05:04:41;;;;;;;29.90;9.38;;;;;;;;;;5066312;28;20040;-75
2022/04/16 05:07:07;;;;;;;32.03;9.45;;;;;;;;;;5068224;28;20081;-75
2022/04/16 05:09:33;;;;;;;26.13;9.00;;;;;;;;;;5065297;28;20493;-75
2022/04/16 05:11:58;;;;;;;41.78;9.57;;;;;;;;;;5067501;28;20021;-75
2022/04/16 05:14:24;;;;;;;32.80;10.43;;;;;;;;;;5063317;28;20395;-75
2022/04/16 05:16:50;;;;;;;30.15;9.88;;;;;;;;;;5066371;28;20052;-76
2022/04/16 05:19:16;;;;;;;38.67;10.60;;;;;;;;;;5067101;28;20847;-76
2022/04/16 05:21:43;;;;;;;23.02;9.85;;;;;;;;;;5068814;28;20039;-76
2022/04/16 05:24:08;;;;;;;37.58;10.85;;;;;;;;;;5065017;28;20720;-76
2022/04/16 05:26:35;;;;;;;41.25;10.38;;;;;;;;;;5067388;28;20059;-76
2022/04/16 05:29:01;;;;;;;27.42;10.20;;;;;;;;;;5064793;28;20032;-75
2022/04/16 05:31:27;;;;;;;43.83;10.95;;;;;;;;;;5065282;28;20032;-75
2022/04/16 05:36:38;;;;;;;24.38;8.05;;;;;;;;;;5061554;28;20115;-75
2022/04/16 05:39:04;;;;;;;27.67;8.27;;;;;;;;;;5064254;28;20124;-76
2022/04/16 05:41:32;;;;;;;20.92;8.00;;;;;;;;;;5068157;28;20028;-76
2022/04/16 05:43:58;;;;;;;17.85;7.72;;;;;;;;;;5066045;28;20029;-75
2022/04/16 05:46:24;;;;;;;18.25;7.93;;;;;;;;;;5063599;28;20028;-76
2022/04/16 05:48:50;;;;;;;17.08;7.68;;;;;;;;;;5066534;28;20403;-76
2022/04/16 05:51:16;;;;;;;24.55;7.05;;;;;;;;;;5068151;28;20029;-75
2022/04/16 05:53:47;;;;;;;20.95;7.47;;;;;;;;;;5051399;28;20064;-80
2022/04/16 05:56:13;;;;;;;23.23;8.23;;;;;;;;;;5084546;28;20028;-81
2022/04/16 05:58:39;;;;;;;18.40;7.10;;;;;;;;;;5084874;28;20028;-80
2022/04/16 06:01:07;;;;;;;21.63;6.95;;;;;;;;;;5068225;28;20028;-81
2022/04/16 06:03:34;;;;;;;19.73;6.43;;;;;;;;;;5068931;28;20020;-81
2022/04/16 06:06:00;;;;;;;24.42;7.28;;;;;;;;;;5069630;28;20039;-81
2022/04/16 06:08:26;;;;;;;27.65;7.95;;;;;;;;;;5071513;28;20032;-81
2022/04/16 06:10:52;;;;;;;20.40;7.60;;;;;;;;;;5070202;28;20078;-81
2022/04/16 06:13:17;;;;;;;20.85;7.30;;;;;;;;;;5035356;28;20517;-81
2022/04/16 06:15:43;;;;;;;23.83;6.72;;;;;;;;;;5071328;28;20036;-81
2022/04/16 06:18:10;;;;;;;23.67;6.47;;;;;;;;;;5069821;28;20127;-81
2022/04/16 06:20:36;;;;;;;24.63;8.13;;;;;;;;;;5068197;28;20085;-81
2022/04/16 06:23:02;;;;;;;23.40;6.78;;;;;;;;;;5068316;28;20071;-81
2022/04/16 06:25:28;;;;;;;14.20;7.05;;;;;;;;;;5069522;28;20037;-81
2022/04/16 06:27:54;;;;;;;15.63;6.28;;;;;;;;;;5052891;28;20099;-81
2022/04/16 06:30:20;;;;;;;25.13;6.63;;;;;;;;;;5047433;28;20033;-81
2022/04/16 06:32:46;;;;;;;25.67;7.05;;;;;;;;;;5070940;28;20036;-82
2022/04/16 06:35:12;;;;;;;18.85;6.65;;;;;;;;;;5055013;28;20052;-81
2022/04/16 06:37:39;;;;;;;24.08;7.45;;;;;;;;;;5071259;28;20027;-81
2022/04/16 06:40:06;;;;;;;18.27;6.82;;;;;;;;;;5069574;28;20024;-81
2022/04/16 06:42:32;;;;;;;17.77;6.40;;;;;;;;;;5069145;28;20025;-85
2022/04/16 06:44:58;;;;;;;27.48;7.25;;;;;;;;;;5070672;28;20032;-77
2022/04/16 06:47:24;;;;;;;26.35;7.47;;;;;;;;;;5052154;28;20104;-81
2022/04/16 06:49:49;;;;;;;29.35;7.88;;;;;;;;;;5068993;28;20032;-81
2022/04/16 06:52:18;;;;;;;20.25;6.70;;;;;;;;;;5067324;28;20040;-81
2022/04/16 06:54:44;;;;;;;21.63;7.30;;;;;;;;;;5069753;28;20028;-80
2022/04/16 06:57:09;;;;;;;20.45;7.15;;;;;;;;;;5072197;28;20024;-80
2022/04/16 06:59:35;;;;;;;30.08;7.75;;;;;;;;;;5067953;28;20655;-81
2022/04/16 07:02:00;;;;;;;19.73;7.13;;;;;;;;;;5067718;28;20067;-81
2022/04/16 07:04:26;;;;;;;21.63;7.35;;;;;;;;;;5069646;28;20529;-80
2022/04/16 07:06:51;;;;;;;21.92;7.50;;;;;;;;;;5070465;28;20533;-80
2022/04/16 07:09:17;;;;;;;18.70;6.28;;;;;;;;;;5069051;28;20028;-80
2022/04/16 07:11:42;;;;;;;21.15;6.47;;;;;;;;;;5066851;28;20036;-81
2022/04/16 07:14:08;;;;;;;15.82;5.63;;;;;;;;;;5069329;28;20405;-80
2022/04/16 07:16:34;;;;;;;16.65;5.43;;;;;;;;;;5075059;28;20036;-81
2022/04/16 07:18:59;;;;;;;23.55;5.03;;;;;;;;;;5052247;28;20063;-81
2022/04/16 07:21:25;;;;;;;21.92;5.22;;;;;;;;;;5069101;28;20024;-81
2022/04/16 07:23:50;;;;;;;19.65;4.53;;;;;;;;;;5068414;28;20025;-80
2022/04/16 07:26:15;;;;;;;17.05;4.10;;;;;;;;;;5050243;28;20052;-80
2022/04/16 07:28:41;;;;;;;17.20;4.03;;;;;;;;;;5037811;28;20127;-81
2022/04/16 07:31:06;;;;;;;19.30;3.75;;;;;;;;;;5068066;28;20499;-80
2022/04/16 07:33:32;;;;;;;18.60;3.83;;;;;;;;;;5064800;28;20115;-74
2022/04/16 07:35:57;;;;;;;25.52;4.68;;;;;;;;;;5081923;28;20127;-74
2022/04/16 07:38:23;;;;;;;15.32;3.33;;;;;;;;;;5062258;28;20091;-74
2022/04/16 07:40:48;;;;;;;14.75;3.15;;;;;;;;;;5082490;28;20046;-75
2022/04/16 07:43:17;;;;;;;12.50;3.25;;;;;;;;;;5085753;28;20495;-75
2022/04/16 07:45:43;;;;;;;10.13;2.72;;;;;;;;;;5069032;28;20044;-74
2022/04/16 07:48:09;;;;;;;14.13;3.40;;;;;;;;;;5084561;28;20430;-75
2022/04/16 07:50:34;;;;;;;16.85;4.13;;;;;;;;;;5064665;28;20108;-74
2022/04/16 07:53:00;;;;;;;13.30;2.85;;;;;;;;;;5050743;28;20032;-75
2022/04/16 07:55:31;;;;;;;19.83;3.45;;;;;;;;;;5072292;28;20035;-75
2022/04/16 07:57:58;;;;;;;8.70;2.55;;;;;;;;;;5062380;28;20442;-76
2022/04/16 08:00:23;;;;;;;14.80;2.60;;;;;;;;;;5064749;28;20063;-75
2022/04/16 08:02:49;;;;;;;21.85;3.10;;;;;;;;;;5070205;28;20052;-75
2022/04/16 08:05:14;;;;;;;13.30;2.65;;;;;;;;;;5066751;28;20036;-75
2022/04/16 08:07:40;;;;;;;18.20;2.53;;;;;;;;;;5068063;28;20040;-75
2022/04/16 08:10:06;;;;;;;15.07;2.70;;;;;;;;;;5067890;28;20494;-75
2022/04/16 08:12:32;;;;;;;12.45;2.70;;;;;;;;;;5086209;28;20032;-75
2022/04/16 08:14:57;;;;;;;14.57;2.50;;;;;;;;;;5063619;28;20697;-75
2022/04/16 08:17:22;;;;;;;24.42;3.38;;;;;;;;;;5053071;28;20029;-75
2022/04/16 08:19:48;;;;;;;16.23;2.70;;;;;;;;;;5066009;28;20125;-76
2022/04/16 08:22:18;;;;;;;12.93;2.40;;;;;;;;;;5049905;28;20036;-75
2022/04/16 08:24:54;;;;;;;12.50;2.30;;;;;;;;;;5067515;28;20045;-75
2022/04/16 08:27:21;;;;;;;11.32;1.73;;;;;;;;;;5080882;28;20051;-75
2022/04/16 08:29:47;;;;;;;16.83;1.80;;;;;;;;;;5067386;28;20075;-76
2022/04/16 08:32:12;;;;;;;28.83;2.15;;;;;;;;;;5066619;28;20029;-76
2022/04/16 08:34:38;;;;;;;15.90;1.73;;;;;;;;;;5063945;28;20037;-80
2022/04/16 08:37:04;;;;;;;14.95;1.73;;;;;;;;;;5063240;28;20040;-80
2022/04/16 08:39:29;;;;;;;11.63;2.30;;;;;;;;;;5064829;28;20024;-80
2022/04/16 08:41:56;;;;;;;17.08;1.77;;;;;;;;;;5063686;28;20036;-80
2022/04/16 08:44:25;;;;;;;18.25;1.92;;;;;;;;;;5066571;28;20035;-80
2022/04/16 08:46:53;;;;;;;16.88;1.83;;;;;;;;;;5065091;28;20039;-81
2022/04/16 08:49:20;;;;;;;19.45;1.65;;;;;;;;;;5063417;28;20028;-81
2022/04/16 08:51:46;;;;;;;14.32;2.38;;;;;;;;;;5065858;28;20058;-76
2022/04/16 08:54:12;;;;;;;20.08;1.33;;;;;;;;;;5070159;28;20384;-76
2022/04/16 08:56:39;;;;;;;13.07;1.80;;;;;;;;;;5065936;28;20034;-75
2022/04/16 08:59:05;;;;;;;14.52;1.20;;;;;;;;;;5050594;28;20059;-76
2022/04/16 09:01:30;;;;;;;7.78;0.98;;;;;;;;;;5068137;28;20024;-75
2022/04/16 09:03:58;;;;;;;14.30;1.75;;;;;;;;;;5057366;28;20024;-80
2022/04/16 09:06:25;;;;;;;19.90;2.38;;;;;;;;;;5068448;28;20534;-76
2022/04/16 09:08:50;;;;;;;9.18;1.15;;;;;;;;;;5047220;28;20036;-76
2022/04/16 09:11:21;;;;;;;21.42;2.55;;;;;;;;;;5066146;28;20406;-76
2022/04/16 09:13:49;;;;;;;18.38;1.95;;;;;;;;;;5066261;28;20031;-76
2022/04/16 09:16:16;;;;;;;12.48;2.25;;;;;;;;;;5068097;28;20086;-80
2022/04/16 09:18:53;;;;;;;15.75;1.80;;;;;;;;;;5081832;28;20387;-80
2022/04/16 09:21:23;;;;;;;14.68;1.17;;;;;;;;;;5066624;28;20024;-80
2022/04/16 09:23:52;;;;;;;25.42;2.13;;;;;;;;;;5066463;28;20033;-81
2022/04/16 09:26:35;;;;;;;8.40;1.20;;;;;;;;;;5058469;28;20114;-76
2022/04/16 09:29:14;;;;;;;12.88;1.48;;;;;;;;;;5070309;28;20044;-75
2022/04/16 09:31:46;;;;;;;16.05;2.40;;;;;;;;;;5072288;28;20020;-75
2022/04/16 09:34:18;;;;;;;;;;;;;;;;;;5068468;28;20402;-80
2022/04/16 09:36:44;;;;;;;20.20;2.10;;;;;;;;;;5067702;28;19928;-80
2022/04/16 09:39:11;;;;;;;11.30;1.65;;;;;;;;;;5070467;28;20123;-80
2022/04/16 09:41:38;;;;;;;23.15;2.35;;;;;;;;;;5082711;28;20072;-80
2022/04/16 09:44:15;;;;;;;21.30;2.95;;;;;;;;;;5070276;28;20047;-80
2022/04/16 09:46:44;;;;;;;9.65;2.00;;;;;;;;;;5070728;28;20082;-75
2022/04/16 09:49:12;;;;;;;15.75;1.55;;;;;;;;;;5066294;28;20036;-75
2022/04/16 09:51:40;;;;;;;18.30;2.22;;;;;;;;;;5068099;28;20028;-76
2022/04/16 09:54:06;;;;;;;28.17;2.10;;;;;;;;;;5064970;28;20727;-80
2022/04/16 09:56:37;;;;;;;13.10;2.05;;;;;;;;;;5070286;28;20036;-76
2022/04/16 09:59:08;;;;;;;11.45;1.83;;;;;;;;;;5070292;28;20024;-80
2022/04/16 10:01:49;;;;;;;13.23;2.17;;;;;;;;;;5051721;28;20033;-76
2022/04/16 10:04:19;;;;;;;11.80;1.67;;;;;;;;;;5071121;28;20024;-76
2022/04/16 10:06:46;;;;;;;11.85;1.85;;;;;;;;;;5070594;28;20123;-76
2022/04/16 10:09:14;;;;;;;9.27;1.58;;;;;;;;;;5069642;28;20445;-76
2022/04/16 10:15:13;;;;;;;12.23;1.70;;;;;;;;;;5085532;28;20034;-76
2022/04/16 10:17:49;;;;;;;17.52;1.75;;;;;;;;;;5064843;28;20040;-76
2022/04/16 10:20:19;;;;;;;9.77;1.77;;;;;;;;;;5080159;28;20059;-76
2022/04/16 10:23:01;;;;;;;13.48;1.58;;;;;;;;;;5069913;28;20040;-76
2022/04/16 10:25:35;;;;;;;7.65;0.98;;;;;;;;;;5064454;28;20071;-75
2022/04/16 10:28:08;;;;;;;18.90;1.60;;;;;;;;;;5070657;28;20040;-75
2022/04/16 10:30:41;;;;;;;10.20;1.67;;;;;;;;;;5067351;28;20111;-75
2022/04/16 10:33:20;;;;;;;17.33;1.42;;;;;;;;;;5070667;28;20036;-79
2022/04/16 10:35:54;;;;;;;17.95;1.92;;;;;;;;;;5065600;28;20119;-75
2022/04/16 10:38:32;;;;;;;17.75;1.90;;;;;;;;;;5067597;28;20502;-75
2022/04/16 10:40:58;;;;;;;13.20;1.67;;;;;;;;;;5069732;28;20032;-74
2022/04/16 10:43:32;;;;;;;15.35;1.95;;;;;;;;;;5082008;28;20124;-74
2022/04/16 10:46:08;;;;;;;15.05;1.67;;;;;;;;;;5064478;28;20032;-73
2022/04/16 10:48:37;;;;;;;18.75;1.80;;;;;;;;;;5067740;28;20047;-79
2022/04/16 10:51:04;;;;;;;18.08;2.63;;;;;;;;;;5064786;28;20483;-79
2022/04/16 10:53:37;;;;;;;15.35;1.50;;;;;;;;;;5068498;28;20033;-79
2022/04/16 10:56:17;;;;;;;17.30;2.00;;;;;;;;;;5065372;28;20024;-79
2022/04/16 10:58:47;;;;;;;18.02;2.30;;;;;;;;;;5080837;28;20516;-79
2022/04/16 11:01:23;;;;;;;14.55;1.55;;;;;;;;;;5065448;28;20425;-75
2022/04/16 11:03:49;;;;;;;23.33;2.17;;;;;;;;;;5067423;28;20487;-75
2022/04/16 11:06:16;;;;;;;12.25;1.55;;;;;;;;;;5067101;28;20112;-75
2022/04/16 11:08:45;;;;;;;9.70;1.90;;;;;;;;;;5060596;28;20060;-74
2022/04/16 11:11:12;;;;;;;8.93;1.55;;;;;;;;;;5060688;28;20039;-75
2022/04/16 11:13:40;;;;;;;18.23;2.95;;;;;;;;;;5082281;28;20055;-74
2022/04/16 11:16:06;;;;;;;9.10;1.52;;;;;;;;;;5068750;28;20028;-76
2022/04/16 11:18:41;;;;;;;12.77;2.58;;;;;;;;;;5064818;28;20107;-74
2022/04/16 11:21:20;;;;;;;12.98;1.83;;;;;;;;;;5051456;28;20640;-74
2022/04/16 11:23:48;;;;;;;24.80;2.47;;;;;;;;;;5081086;28;20043;-74
2022/04/16 11:34:29;;;;;;;12.75;2.40;;;;;;;;;;5071009;28;20043;-79
2022/04/16 11:36:55;;;;;;;22.30;1.40;;;;;;;;;;5068684;28;20051;-80
2022/04/16 11:39:26;;;;;;;7.03;1.38;;;;;;;;;;5053933;28;20639;-74
2022/04/16 11:41:54;;;;;;;11.27;0.73;;;;;;;;;;5067425;28;20454;-75
2022/04/16 11:44:40;;;;;;;5.80;1.02;;;;;;;;;;5067529;28;20249;-75
2022/04/16 11:47:19;;;;;;;5.80;0.90;;;;;;;;;;5065410;28;20029;-75
2022/04/16 11:49:48;;;;;;;3.67;0.73;;;;;;;;;;5064531;28;20059;-74
2022/04/16 11:52:15;;;;;;;8.38;0.85;;;;;;;;;;5066449;28;20048;-75
2022/04/16 11:54:40;;;;;;;6.13;0.80;;;;;;;;;;5067885;28;20569;-75
2022/04/16 11:57:06;;;;;;;4.22;0.80;;;;;;;;;;5065306;28;20140;-74
2022/04/16 11:59:32;;;;;;;7.13;0.70;;;;;;;;;;5069189;28;20024;-73
2022/04/16 12:02:03;;;;;;;3.53;0.70;;;;;;;;;;5068860;28;20029;-73
2022/04/16 12:04:42;;;;;;;5.25;0.70;;;;;;;;;;5066727;28;20119;-78
2022/04/16 12:07:13;;;;;;;8.45;0.80;;;;;;;;;;5084510;28;20036;-77
2022/04/16 12:09:49;;;;;;;5.60;0.50;;;;;;;;;;5084758;28;20042;-74
2022/04/16 12:12:21;;;;;;;6.15;0.47;;;;;;;;;;5066923;28;20063;-74
2022/04/16 12:14:51;;;;;;;;;;;;;;;;;;5070078;28;20525;-75
2022/04/16 12:17:29;;;;;;;3.80;0.60;;;;;;;;;;5068722;28;19915;-74
2022/04/16 12:20:07;;;;;;;4.50;0.70;;;;;;;;;;5053295;28;20029;-75
2022/04/16 12:23:05;;;;;;;11.52;0.60;;;;;;;;;;5085297;28;20038;-75
2022/04/16 12:25:32;;;;;;;2.10;0.30;;;;;;;;;;5066901;28;20047;-75
2022/04/16 12:28:00;;;;;;;2.65;0.50;;;;;;;;;;5065398;28;20502;-75
2022/04/16 12:30:33;;;;;;;1.42;0.20;;;;;;;;;;5067065;28;20020;-74
2022/04/16 12:33:03;;;;;;;3.10;0.30;;;;;;;;;;5058039;28;20064;-80
2022/04/16 12:35:40;;;;;;;3.35;0.45;;;;;;;;;;5068272;28;20142;-76
2022/04/16 12:38:07;;;;;;;1.90;0.28;;;;;;;;;;5068253;28;20020;-74
2022/04/16 12:40:34;;;;;;;2.50;0.28;;;;;;;;;;5066670;28;20071;-74
2022/04/16 12:43:01;;;;;;;3.30;0.50;;;;;;;;;;5065592;28;20028;-75
2022/04/16 12:45:28;;;;;;;2.08;0.40;;;;;;;;;;5076332;28;20020;-75
2022/04/16 12:47:54;;;;;;;2.75;0.60;;;;;;;;;;5068455;28;20395;-75
2022/04/16 12:50:20;;;;;;;4.20;0.30;;;;;;;;;;5062826;28;20119;-75
2022/04/16 12:52:46;;;;;;;2.20;0.40;;;;;;;;;;5082971;28;20036;-74
2022/04/16 12:55:13;;;;;;;2.53;0.40;;;;;;;;;;5064649;28;20498;-76
2022/04/16 12:57:38;;;;;;;2.63;0.43;;;;;;;;;;5066111;28;20056;-75
2022/04/16 13:00:06;;;;;;;4.40;1.30;;;;;;;;;;5062656;28;20070;-74
2022/04/16 13:02:31;;;;;;;2.05;0.57;;;;;;;;;;5065286;28;20712;-74
2022/04/16 13:04:57;;;;;;;2.00;0.50;;;;;;;;;;5061702;28;20048;-75
2022/04/16 13:07:22;;;;;;;3.28;0.65;;;;;;;;;;5066169;28;20127;-75
2022/04/16 13:09:48;;;;;;;4.05;0.70;;;;;;;;;;5045030;28;20033;-74
2022/04/16 13:12:17;;;;;;;2.83;0.40;;;;;;;;;;5070849;28;20044;-75
2022/04/16 13:14:46;;;;;;;4.25;0.68;;;;;;;;;;5064206;28;20036;-74
2022/04/16 13:17:13;;;;;;;5.30;0.40;;;;;;;;;;5050242;28;20075;-74
2022/04/16 13:19:38;;;;;;;2.45;0.70;;;;;;;;;;5064629;28;20051;-74
2022/04/16 13:22:04;;;;;;;1.73;0.68;;;;;;;;;;5067112;28;20526;-75
2022/04/16 13:24:30;;;;;;;4.82;0.70;;;;;;;;;;5064924;28;20037;-79
2022/04/16 13:26:56;;;;;;;2.17;0.60;;;;;;;;;;5049950;28;20040;-78
2022/04/16 13:29:22;;;;;;;5.30;0.80;;;;;;;;;;5064478;28;20027;-79
2022/04/16 13:31:47;;;;;;;1.98;0.80;;;;;;;;;;5062293;28;20085;-79
2022/04/16 13:34:13;;;;;;;1.25;0.50;;;;;;;;;;5066028;28;20137;-74
2022/04/16 13:36:39;;;;;;;3.00;0.30;;;;;;;;;;5076287;28;20487;-74
2022/04/16 13:39:05;;;;;;;3.17;0.60;;;;;;;;;;5061894;28;20052;-79
2022/04/16 13:41:40;;;;;;;3.63;0.70;;;;;;;;;;5065632;28;20483;-75
2022/04/16 13:44:10;;;;;;;4.03;0.80;;;;;;;;;;5067016;28;20033;-75
2022/04/16 13:46:36;;;;;;;6.90;0.82;;;;;;;;;;5064485;28;20032;-74
2022/04/16 13:49:03;;;;;;;3.22;0.55;;;;;;;;;;5048079;28;20043;-75
2022/04/16 13:51:29;;;;;;;1.67;0.50;;;;;;;;;;5063840;28;21050;-74
2022/04/16 13:53:55;;;;;;;1.85;0.50;;;;;;;;;;5067339;28;20041;-76
2022/04/16 13:56:21;;;;;;;3.78;0.60;;;;;;;;;;5066699;28;20025;-74
2022/04/16 13:58:46;;;;;;;2.90;0.80;;;;;;;;;;5064232;28;20574;-75
2022/04/16 14:01:15;;;;;;;6.18;0.77;;;;;;;;;;5066174;28;20035;-74
2022/04/16 14:03:40;;;;;;;1.45;0.50;;;;;;;;;;5077676;28;20047;-79
2022/04/16 14:06:05;;;;;;;4.47;1.00;;;;;;;;;;5078787;28;20111;-79
2022/04/16 14:08:31;;;;;;;2.33;0.50;;;;;;;;;;5065675;28;20040;-74
2022/04/16 14:11:00;;;;;;;4.82;0.77;;;;;;;;;;5082000;28;20406;-74
2022/04/16 14:13:28;;;;;;;5.40;0.80;;;;;;;;;;5070532;28;20032;-75
2022/04/16 14:15:54;;;;;;;5.28;0.60;;;;;;;;;;5067840;28;20159;-75
2022/04/16 14:18:19;;;;;;;4.63;0.70;;;;;;;;;;5049349;28;20074;-73
2022/04/16 14:20:45;;;;;;;3.78;1.17;;;;;;;;;;5035231;28;20371;-75
2022/04/16 14:23:15;;;;;;;1.40;0.60;;;;;;;;;;5054448;28;20047;-74
2022/04/16 14:25:41;;;;;;;3.38;0.50;;;;;;;;;;5064714;28;20048;-74
2022/04/16 14:28:07;;;;;;;1.73;0.73;;;;;;;;;;5061237;28;20045;-75
2022/04/16 14:30:35;;;;;;;3.33;0.60;;;;;;;;;;5088687;28;20107;-74
2022/04/16 14:33:01;;;;;;;3.53;0.60;;;;;;;;;;5066636;28;20033;-79
2022/04/16 14:35:26;;;;;;;1.58;0.70;;;;;;;;;;5065658;28;20039;-79
2022/04/16 14:37:51;;;;;;;3.55;0.70;;;;;;;;;;5070817;28;20021;-77
2022/04/16 14:40:17;;;;;;;8.80;0.88;;;;;;;;;;5068655;28;20073;-75
2022/04/16 14:42:44;;;;;;;5.57;0.80;;;;;;;;;;5067604;28;20498;-74
2022/04/16 14:45:09;;;;;;;6.13;1.05;;;;;;;;;;5085468;28;20036;-74
2022/04/16 14:47:36;;;;;;;1.52;0.50;;;;;;;;;;5071292;28;20051;-74
2022/04/16 14:50:02;;;;;;;5.40;0.57;;;;;;;;;;5064413;28;20032;-73
2022/04/16 14:52:28;;;;;;;5.68;0.70;;;;;;;;;;5067413;28;20029;-73
2022/04/16 14:54:54;;;;;;;3.80;0.80;;;;;;;;;;5052511;28;20033;-74